createdAt,value
2023-04-02T00:12:30.868Z,1.20
2023-04-02T00:32:32.760Z,0.98
2023-04-02T00:52:34.274Z,0.93
2023-04-02T01:12:35.873Z,0.90
2023-04-02T01:32:37.623Z,0.90
2023-04-02T01:52:39.250Z,1.20
2023-04-02T02:12:41.551Z,0.90
2023-04-02T02:32:44.081Z,0.90
2023-04-02T02:52:45.799Z,0.70
2023-04-02T03:12:49.261Z,0.73
2023-04-02T03:32:51.254Z,0.98
2023-04-02T03:52:53.136Z,1.58
2023-04-02T04:12:54.871Z,2.10
2023-04-02T04:32:58.861Z,1.80
2023-04-02T04:53:01.646Z,1.38
2023-04-02T05:13:03.590Z,1.23
2023-04-02T05:33:05.513Z,1.00
2023-04-02T05:53:07.428Z,1.05
2023-04-02T06:13:10.720Z,1.40
2023-04-02T06:33:15.851Z,1.40
2023-04-02T06:53:20.397Z,2.10
2023-04-02T07:13:22.809Z,2.60
2023-04-02T07:33:24.817Z,3.00
2023-04-02T07:53:26.454Z,2.92
2023-04-02T08:54:52.822Z,3.17
2023-04-02T09:15:13.002Z,3.45
2023-04-02T10:16:58.297Z,3.70
2023-04-02T10:37:17.464Z,2.10
2023-04-02T11:59:33.725Z,5.35
2023-04-02T12:19:35.277Z,6.22
2023-04-02T12:39:36.914Z,3.55
2023-04-02T12:59:40.110Z,3.60
2023-04-02T13:19:41.588Z,4.18
2023-04-02T13:39:43.419Z,3.45
2023-04-02T13:59:52.129Z,3.72
2023-04-02T14:40:39.973Z,4.15
2023-04-02T15:00:42.365Z,3.63
2023-04-02T15:20:48.361Z,4.18
2023-04-02T15:40:49.925Z,3.05
2023-04-02T16:00:52.941Z,3.42
2023-04-02T16:20:54.478Z,3.55
2023-04-02T16:41:06.916Z,3.72
2023-04-02T17:01:10.071Z,3.28
2023-04-02T17:21:11.760Z,3.03
2023-04-02T17:41:13.621Z,3.65
2023-04-02T18:01:15.279Z,4.60
2023-04-02T18:21:19.325Z,3.28
2023-04-02T18:41:22.335Z,2.88
2023-04-02T19:01:24.118Z,3.10
2023-04-02T19:21:25.971Z,3.15
2023-04-02T19:41:27.530Z,3.47
2023-04-02T20:01:29.171Z,3.95
2023-04-02T20:21:30.791Z,3.90
2023-04-02T20:41:32.387Z,3.83
2023-04-02T21:01:34.099Z,4.15
2023-04-02T21:21:41.208Z,3.88
2023-04-02T21:41:42.927Z,3.55
2023-04-02T22:01:44.421Z,4.22
2023-04-02T22:21:46.060Z,3.72
2023-04-02T22:41:47.714Z,4.15
2023-04-02T23:01:49.195Z,4.13
2023-04-02T23:21:50.879Z,3.45
2023-04-02T23:41:52.314Z,3.05
